This is the latest recevied telemetry packets stored in our database for station/object DG7RJ-12. If no packets are shown the sender has not sent any telemetry packets the latest 1 day(s).
Telemetry packets is used to share measurements like repeteater parameters, battery voltage, radiation readings (or any other measurements).
| Time | Press* | Temp.in* | Hum* | QNH* | Temp.out* |
|---|---|---|---|---|---|
| 1778017010 | 954.9 hPa | 22 C deg | 45.1 % | 1007.7 hPa | 14.1 C deg |
| 1778015194 | 955 hPa | 22.1 C deg | 45 % | 1007.9 hPa | 14.4 C deg |
| 1778013380 | 954.7 hPa | 22.3 C deg | 44.9 % | 1007.5 hPa | 14.4 C deg |
| 1778011564 | 954.3 hPa | 22.4 C deg | 44.9 % | 1007 hPa | 14.2 C deg |
| 1778009749 | 953.6 hPa | 22.5 C deg | 44.8 % | 1006.3 hPa | 14.2 C deg |
| 1778007936 | 952.8 hPa | 22.6 C deg | 44.7 % | 1005.4 hPa | 14.1 C deg |
| 1778006119 | 952.8 hPa | 22.8 C deg | 44.6 % | 1005.4 hPa | 15 C deg |
| 1778004304 | 952.9 hPa | 23.1 C deg | 44.4 % | 1005.4 hPa | 16 C deg |
| 1778002488 | 952.6 hPa | 23.3 C deg | 44.1 % | 1005.1 hPa | 17.4 C deg |
| 1778000673 | 952.4 hPa | 23.5 C deg | 43.8 % | 1004.9 hPa | 18.5 C deg |
| 1777998858 | 952.5 hPa | 23.6 C deg | 43.8 % | 1004.9 hPa | 18.8 C deg |
| 1777997043 | 952.7 hPa | 23.7 C deg | 43.7 % | 1005.2 hPa | 15.5 C deg |
| 1777995228 | 952.7 hPa | 23.9 C deg | 43 % | 1005.1 hPa | 18.6 C deg |
| 1777993413 | 952.3 hPa | 24.2 C deg | 42.5 % | 1004.7 hPa | 16.4 C deg |
| 1777991597 | 951.7 hPa | 24.6 C deg | 41.8 % | 1003.9 hPa | 24.7 C deg |
| 1777989782 | 951.7 hPa | 24.8 C deg | 41.6 % | 1003.9 hPa | 27.6 C deg |
| 1777987967 | 951.8 hPa | 25 C deg | 41.2 % | 1004 hPa | 28 C deg |
| 1777986152 | 952 hPa | 25.2 C deg | 40.8 % | 1004.1 hPa | 30.8 C deg |
| 1777984337 | 952.1 hPa | 25.1 C deg | 40.9 % | 1004.3 hPa | 30.6 C deg |
| 1777982522 | 952.1 hPa | 25 C deg | 41.1 % | 1004.3 hPa | 31.1 C deg |
| 1777980706 | 952.3 hPa | 25 C deg | 40.9 % | 1004.5 hPa | 36 C deg |
| 1777978891 | 952.6 hPa | 24.9 C deg | 40.7 % | 1004.8 hPa | 31.9 C deg |
| 1777977076 | 953.1 hPa | 24.9 C deg | 40.4 % | 1005.3 hPa | 38.2 C deg |
| 1777975261 | 953.5 hPa | 24.6 C deg | 40.4 % | 1005.8 hPa | 43.4 C deg |
| 1777973446 | 953.8 hPa | 24.2 C deg | 40.7 % | 1006.3 hPa | 33.6 C deg |
*Used Equation Coefficients:
Press: 0, 1, 0
Temp.in: 0, 1, 0
Hum: 0, 1, 0
QNH: 0, 1, 0
Temp.out: 0, 1, 0
- The parameter names for the analog channels will be Value1, Value2, Value3 (up to Value5) if station has not sent a PARAM-packet that specifies the parameter names for each analog channel.
- Each analog value is a decimal number between 000 and 255 (according to APRS specifications). The receiver use the telemetry equation coefficientsto to restore the original sensor values. If no EQNS-packet with equation coefficients is sent we will show the values as is (this corresponds to the equation coefficients a=0, b=1 and c=0).
The sent equation coefficients is used in the equation: a * value2 + b * value + c. - The units for the analog values will not be shown if station has not sent a UNIT-packet specifying what unit's to use.
- The parameter names for the digital bits will be Bit1, Bit2, Bit3 (up to Bit8) if station has not sent a PARAM-packet that specifies the parameter names for each digital bit.
- All bit labels will be named "On" if station has not sent a UNIT-packet that specifies the label of each bit.
- A bit is considered to be On when the bit is 1 if station has not sent a BITS-packet that specifies another "Bit sense" (a BITS-packet specify the state of the bits that match the BIT labels)